createdAt,value
2019-05-19T00:01:19.389Z,100208.78
2019-05-19T00:03:51.366Z,100214.36
2019-05-19T00:06:22.890Z,100212.70
2019-05-19T00:08:54.932Z,100210.13
2019-05-19T00:11:26.005Z,100216.16
2019-05-19T00:13:58.344Z,100211.73
2019-05-19T00:16:29.986Z,100215.23
2019-05-19T00:19:01.778Z,100227.05
2019-05-19T00:21:33.446Z,100217.31
2019-05-19T00:24:06.088Z,100217.38
2019-05-19T00:26:40.137Z,100223.48
2019-05-19T00:29:12.784Z,100226.98
2019-05-19T00:31:44.902Z,100220.88
2019-05-19T00:34:17.185Z,100223.91
2019-05-19T00:36:48.633Z,100223.70
2019-05-19T00:39:20.630Z,100219.69
2019-05-19T00:41:52.694Z,100221.84
2019-05-19T00:44:25.352Z,100220.14
2019-05-19T00:46:57.546Z,100210.19
2019-05-19T00:49:40.649Z,100208.03
2019-05-19T00:52:02.770Z,100213.44
2019-05-19T00:54:35.264Z,100213.27
2019-05-19T00:57:07.943Z,100216.41
2019-05-19T00:59:40.574Z,100211.50
2019-05-19T01:02:12.143Z,100208.78
2019-05-19T01:04:43.447Z,100207.34
2019-05-19T01:07:14.687Z,100204.34
2019-05-19T01:09:47.091Z,100207.13
2019-05-19T01:12:19.003Z,100210.65
2019-05-19T01:14:51.050Z,100200.73
2019-05-19T01:17:22.705Z,100202.60
2019-05-19T01:19:56.226Z,100197.00
2019-05-19T01:22:28.840Z,100194.67
2019-05-19T01:25:01.618Z,100198.27
2019-05-19T01:27:35.225Z,100196.61
2019-05-19T01:30:09.361Z,100196.85
2019-05-19T01:32:41.089Z,100197.63
2019-05-19T01:35:13.336Z,100189.65
2019-05-19T01:37:44.995Z,100188.56
2019-05-19T01:40:16.581Z,100188.91
2019-05-19T01:42:48.179Z,100182.28
2019-05-19T01:45:20.533Z,100183.37
2019-05-19T01:47:52.382Z,100173.56
2019-05-19T01:50:24.393Z,100178.04
2019-05-19T01:52:56.705Z,100172.82
2019-05-19T01:55:29.167Z,100172.12
2019-05-19T01:58:01.944Z,100167.78
2019-05-19T02:00:34.213Z,100167.71
2019-05-19T02:03:06.615Z,100167.70
2019-05-19T02:05:38.422Z,100168.08
2019-05-19T02:08:09.862Z,100173.08
2019-05-19T02:10:42.425Z,100164.83
2019-05-19T02:13:14.714Z,100165.94
2019-05-19T02:15:46.707Z,100172.25
2019-05-19T02:18:19.747Z,100181.27
2019-05-19T02:20:51.423Z,100184.39
2019-05-19T02:23:23.206Z,100182.63
2019-05-19T02:25:55.001Z,100184.44
2019-05-19T02:28:28.022Z,100194.25
2019-05-19T02:30:59.570Z,100195.45
2019-05-19T02:33:35.531Z,100185.02
2019-05-19T02:36:05.505Z,100192.41
2019-05-19T02:38:36.914Z,100184.97
2019-05-19T02:41:10.350Z,100180.61
2019-05-19T02:43:42.704Z,100189.39
2019-05-19T02:46:14.940Z,100189.12
2019-05-19T02:48:47.690Z,100185.32
2019-05-19T02:51:22.222Z,100188.20
2019-05-19T02:53:55.505Z,100189.66
2019-05-19T02:56:30.762Z,100185.70
2019-05-19T02:59:02.384Z,100179.61
2019-05-19T03:01:35.227Z,100187.09
2019-05-19T03:04:07.584Z,100174.59
2019-05-19T03:06:39.070Z,100175.20
2019-05-19T03:09:10.643Z,100180.83
2019-05-19T03:11:42.847Z,100181.17
2019-05-19T03:14:14.318Z,100181.78
2019-05-19T03:16:47.516Z,100184.51
2019-05-19T03:19:19.403Z,100180.45
2019-05-19T03:21:51.666Z,100177.96
2019-05-19T03:24:24.187Z,100185.74
2019-05-19T03:26:55.850Z,100181.11
2019-05-19T03:29:29.378Z,100179.80
2019-05-19T03:32:02.306Z,100181.78
2019-05-19T03:34:33.745Z,100180.34
2019-05-19T03:37:05.940Z,100189.53
2019-05-19T03:39:37.511Z,100187.62
2019-05-19T03:42:10.799Z,100192.33
2019-05-19T03:44:42.737Z,100204.75
2019-05-19T03:47:14.540Z,100198.00
2019-05-19T03:49:46.600Z,100184.86
2019-05-19T03:52:18.412Z,100184.55
2019-05-19T03:54:50.305Z,100180.52
2019-05-19T03:57:21.956Z,100177.03
2019-05-19T03:59:53.942Z,100172.05
2019-05-19T04:02:25.704Z,100178.61
2019-05-19T04:04:58.098Z,100175.13
2019-05-19T04:07:30.180Z,100181.38
2019-05-19T04:10:01.990Z,100180.64
2019-05-19T04:12:33.582Z,100184.62
2019-05-19T04:15:07.263Z,100189.32
2019-05-19T04:17:39.886Z,100190.00
2019-05-19T04:20:12.724Z,100203.13
2019-05-19T04:22:44.430Z,100199.40
2019-05-19T04:25:17.097Z,100201.73
2019-05-19T04:27:49.323Z,100201.47
2019-05-19T04:30:21.423Z,100199.63
2019-05-19T04:32:53.309Z,100200.94
2019-05-19T04:35:24.748Z,100209.60
2019-05-19T04:37:56.306Z,100204.30
2019-05-19T04:40:27.845Z,100200.74
2019-05-19T04:42:59.434Z,100205.89
2019-05-19T04:45:31.359Z,100206.36
2019-05-19T04:48:03.506Z,100199.33
2019-05-19T04:50:36.638Z,100194.92
2019-05-19T04:53:08.411Z,100197.42
2019-05-19T04:55:42.008Z,100194.27
2019-05-19T04:58:14.465Z,100187.98
2019-05-19T05:00:46.100Z,100182.14
2019-05-19T05:03:18.234Z,100205.04
2019-05-19T05:05:50.419Z,100200.83
2019-05-19T05:08:29.497Z,100188.69
2019-05-19T05:10:55.327Z,100190.27
2019-05-19T05:13:26.774Z,100173.77
2019-05-19T05:15:58.756Z,100180.45
2019-05-19T05:18:30.834Z,100175.73
2019-05-19T05:21:02.406Z,100166.67
2019-05-19T05:23:34.888Z,100164.27
2019-05-19T05:26:07.626Z,100161.45
2019-05-19T05:28:39.673Z,100152.48
2019-05-19T05:31:11.566Z,100150.66
2019-05-19T05:33:43.220Z,100147.02
2019-05-19T05:36:14.950Z,100148.59
2019-05-19T05:38:46.379Z,100143.98
2019-05-19T05:41:17.624Z,100135.76
2019-05-19T05:43:48.980Z,100135.56
2019-05-19T05:46:20.505Z,100133.14
2019-05-19T05:48:53.177Z,100131.58
2019-05-19T05:51:24.935Z,100139.61
2019-05-19T05:53:56.778Z,100140.59
2019-05-19T05:56:29.488Z,100146.84
2019-05-19T05:59:01.264Z,100139.46
2019-05-19T06:01:32.942Z,100142.19
2019-05-19T06:04:05.700Z,100129.95
2019-05-19T06:06:37.540Z,100125.29
2019-05-19T06:09:09.643Z,100133.33
2019-05-19T06:11:41.071Z,100144.39
2019-05-19T06:14:13.701Z,100177.34
2019-05-19T06:16:45.613Z,100158.02
2019-05-19T06:19:18.870Z,100166.84
2019-05-19T06:21:51.512Z,100158.57
2019-05-19T06:24:23.640Z,100158.63
2019-05-19T06:26:55.798Z,100158.23
2019-05-19T06:29:28.194Z,100146.46
2019-05-19T06:32:01.043Z,100141.37
2019-05-19T06:34:34.348Z,100131.49
2019-05-19T06:37:06.919Z,100116.92
2019-05-19T06:39:39.370Z,100113.59
2019-05-19T06:42:11.306Z,100111.13
2019-05-19T06:44:43.807Z,100104.63
2019-05-19T06:47:15.928Z,100107.31
2019-05-19T06:49:48.387Z,100099.02
2019-05-19T06:52:20.262Z,100097.34
2019-05-19T06:54:52.279Z,100088.60
2019-05-19T06:57:23.882Z,100091.30
2019-05-19T06:59:56.225Z,100087.36
2019-05-19T07:02:27.561Z,100085.20
2019-05-19T07:04:59.835Z,100101.87
2019-05-19T07:07:32.678Z,100134.78
2019-05-19T07:10:05.891Z,100177.52
2019-05-19T07:12:39.143Z,100178.53
2019-05-19T07:15:12.228Z,100170.36
2019-05-19T07:17:44.562Z,100196.01
2019-05-19T07:20:17.909Z,100189.06
2019-05-19T07:22:49.362Z,100189.67
2019-05-19T07:25:20.481Z,100184.30
2019-05-19T07:27:52.040Z,100174.48
2019-05-19T07:30:25.387Z,100177.92
2019-05-19T07:32:57.365Z,100174.36
2019-05-19T07:35:29.914Z,100157.02
2019-05-19T07:38:01.947Z,100145.85
2019-05-19T07:40:33.333Z,100158.04
2019-05-19T07:43:05.278Z,100159.73
2019-05-19T07:45:37.773Z,100162.29
2019-05-19T07:48:09.443Z,100172.73
2019-05-19T07:50:41.184Z,100180.02
2019-05-19T07:53:12.905Z,100190.82
2019-05-19T07:55:44.655Z,100174.26
2019-05-19T07:58:16.292Z,100181.88
2019-05-19T08:00:48.229Z,100201.19
2019-05-19T08:03:21.142Z,100188.50
2019-05-19T08:05:57.218Z,100193.23
2019-05-19T08:08:29.024Z,100186.17
2019-05-19T08:11:06.956Z,100181.89
2019-05-19T08:13:42.351Z,100169.68
2019-05-19T08:16:14.162Z,100145.63
2019-05-19T08:18:46.151Z,100142.59
2019-05-19T08:21:18.496Z,100127.41
2019-05-19T08:24:00.108Z,100126.27
2019-05-19T08:26:23.690Z,100122.09
2019-05-19T08:28:55.915Z,100122.71
2019-05-19T08:31:29.175Z,100122.99
2019-05-19T08:34:01.085Z,100133.99
2019-05-19T08:36:32.593Z,100134.80
2019-05-19T08:39:06.048Z,100131.69
2019-05-19T08:41:38.180Z,100128.98
2019-05-19T08:44:10.447Z,100128.27
2019-05-19T08:46:41.546Z,100132.07
2019-05-19T08:49:13.071Z,100129.16
2019-05-19T08:51:45.604Z,100126.73
2019-05-19T08:54:19.075Z,100120.94
2019-05-19T08:56:50.932Z,100127.21
2019-05-19T08:59:23.032Z,100126.05
2019-05-19T09:01:55.583Z,100119.98
2019-05-19T09:04:29.028Z,100121.47
2019-05-19T09:07:00.971Z,100118.91
2019-05-19T09:09:33.144Z,100118.94
2019-05-19T09:12:05.590Z,100119.98
2019-05-19T09:14:38.356Z,100124.43
2019-05-19T09:17:10.948Z,100120.11
2019-05-19T09:19:43.506Z,100121.89
2019-05-19T09:22:14.996Z,100124.13
2019-05-19T09:24:47.743Z,100117.09
2019-05-19T09:27:19.633Z,100123.73
2019-05-19T09:29:52.030Z,100117.14
2019-05-19T09:32:24.383Z,100121.10
2019-05-19T09:34:56.366Z,100115.37
2019-05-19T09:37:27.758Z,100116.70
2019-05-19T09:39:59.719Z,100118.00
2019-05-19T09:42:32.732Z,100120.20
2019-05-19T09:45:05.810Z,100113.55
2019-05-19T09:47:38.310Z,100109.58
2019-05-19T09:50:11.435Z,100105.16
2019-05-19T09:52:42.675Z,100103.36
2019-05-19T09:55:14.112Z,100100.66
2019-05-19T09:57:45.804Z,100104.19
2019-05-19T10:00:17.838Z,100105.03
2019-05-19T10:02:49.576Z,100098.78
2019-05-19T10:05:22.032Z,100098.29
2019-05-19T10:07:54.033Z,100097.38
2019-05-19T10:10:29.446Z,100095.22
2019-05-19T10:13:01.526Z,100088.49
2019-05-19T10:15:33.917Z,100086.16
2019-05-19T10:18:05.459Z,100091.25
2019-05-19T10:20:38.580Z,100083.31
2019-05-19T10:23:10.821Z,100089.62
2019-05-19T10:25:42.299Z,100085.74
2019-05-19T10:28:13.273Z,100088.84
2019-05-19T10:30:46.788Z,100082.66
2019-05-19T10:33:19.284Z,100086.64
2019-05-19T10:35:50.681Z,100077.36
2019-05-19T10:38:22.732Z,100079.16
2019-05-19T10:40:56.313Z,100073.25
2019-05-19T10:43:27.757Z,100063.16
2019-05-19T10:46:00.561Z,100058.95
2019-05-19T10:48:32.869Z,100062.31
2019-05-19T10:51:04.773Z,100055.22
2019-05-19T10:53:37.934Z,100052.95
2019-05-19T10:56:10.308Z,100046.11
2019-05-19T10:58:42.728Z,100048.58
2019-05-19T11:01:14.946Z,100047.63
2019-05-19T11:03:46.873Z,100040.03
2019-05-19T11:06:18.109Z,100041.20
2019-05-19T11:08:50.070Z,100038.99
2019-05-19T11:11:21.855Z,100040.98
2019-05-19T11:13:52.876Z,100035.17
2019-05-19T11:16:25.113Z,100028.67
2019-05-19T11:18:56.547Z,100026.09
2019-05-19T11:21:28.104Z,100035.36
2019-05-19T11:24:01.303Z,100021.02
2019-05-19T11:26:32.880Z,100015.14
2019-05-19T11:29:05.850Z,100021.17
2019-05-19T11:31:39.430Z,100016.10
2019-05-19T11:34:11.441Z,100015.88
2019-05-19T11:36:42.792Z,100013.62
2019-05-19T11:39:14.635Z,100007.09
2019-05-19T11:41:46.623Z,100010.57
2019-05-19T11:44:19.633Z,100011.08
2019-05-19T11:47:57.319Z,99998.57
2019-05-19T11:50:30.209Z,99999.64
2019-05-19T11:53:01.760Z,99990.66
2019-05-19T11:55:33.564Z,99998.64
2019-05-19T11:58:05.813Z,99990.77
2019-05-19T12:00:38.268Z,99992.72
2019-05-19T12:03:11.293Z,99986.61
2019-05-19T12:05:43.738Z,99984.59
2019-05-19T12:08:15.032Z,99981.59
2019-05-19T12:10:48.524Z,99972.08
2019-05-19T12:13:20.360Z,99971.32
2019-05-19T12:15:51.803Z,99969.24
2019-05-19T12:18:23.713Z,99978.45
2019-05-19T12:20:55.985Z,99975.15
2019-05-19T12:23:27.490Z,99965.42
2019-05-19T12:25:59.102Z,99962.14
2019-05-19T12:28:30.501Z,99962.75
2019-05-19T12:31:01.847Z,99955.39
2019-05-19T12:33:33.181Z,99948.00
2019-05-19T12:36:05.381Z,99957.08
2019-05-19T12:38:36.758Z,99947.83
2019-05-19T12:41:08.901Z,99947.94
2019-05-19T12:43:40.679Z,99935.73
2019-05-19T12:46:16.378Z,99935.89
2019-05-19T12:48:46.262Z,99928.41
2019-05-19T12:51:17.346Z,99925.58
2019-05-19T12:53:49.030Z,99928.34
2019-05-19T12:56:20.996Z,99922.16
2019-05-19T12:58:52.142Z,99924.97
2019-05-19T13:01:24.872Z,99931.70
2019-05-19T13:04:11.280Z,99925.59
2019-05-19T13:06:58.004Z,99926.02
2019-05-19T13:09:29.229Z,99919.58
2019-05-19T13:12:02.388Z,99923.07
2019-05-19T13:14:34.351Z,99920.55
2019-05-19T13:17:06.102Z,99929.34
2019-05-19T13:19:37.374Z,99931.21
2019-05-19T13:22:09.305Z,99928.48
2019-05-19T13:24:40.786Z,99926.84
2019-05-19T13:27:12.562Z,99929.66
2019-05-19T13:29:43.740Z,99927.13
2019-05-19T14:50:39.490Z,99872.19
2019-05-19T14:53:13.984Z,99877.30
2019-05-19T14:55:45.575Z,99896.17
2019-05-19T14:58:17.347Z,99899.33
2019-05-19T15:00:50.051Z,99901.00
2019-05-19T15:03:23.287Z,99891.61
2019-05-19T15:05:55.150Z,99883.48
2019-05-19T15:08:26.824Z,99882.53
2019-05-19T15:10:59.419Z,99882.55
2019-05-19T15:13:31.150Z,99888.38
2019-05-19T15:16:04.325Z,99886.17
2019-05-19T15:18:36.035Z,99876.53
2019-05-19T15:21:08.405Z,99880.03
2019-05-19T15:23:40.073Z,99880.52
2019-05-19T15:26:13.332Z,99885.50
2019-05-19T15:28:46.417Z,99888.34
2019-05-19T15:31:18.327Z,99888.59
2019-05-19T15:33:50.743Z,99897.31
2019-05-19T15:36:23.146Z,99899.42
2019-05-19T15:38:55.398Z,99902.42
2019-05-19T15:41:28.105Z,99899.59
2019-05-19T15:43:59.227Z,99898.75
2019-05-19T15:46:30.715Z,99887.09
2019-05-19T15:49:03.407Z,99893.63
2019-05-19T15:51:37.885Z,99894.58
2019-05-19T15:54:10.274Z,99910.88
2019-05-19T15:56:41.918Z,99921.34
2019-05-19T15:59:14.559Z,99925.25
2019-05-19T16:01:46.389Z,99924.31
2019-05-19T16:04:18.565Z,99927.38
2019-05-19T16:06:50.408Z,99913.84
2019-05-19T16:09:23.347Z,99907.36
2019-05-19T16:11:56.612Z,99910.53
2019-05-19T16:14:29.358Z,99909.98
2019-05-19T16:17:02.046Z,99908.95
2019-05-19T16:19:33.407Z,99910.11
2019-05-19T16:22:04.808Z,99910.67
2019-05-19T16:24:37.190Z,99910.75
2019-05-19T16:27:12.391Z,99911.30
2019-05-19T16:29:43.195Z,99914.55
2019-05-19T16:32:16.955Z,99914.27
2019-05-19T16:34:49.600Z,99920.90
2019-05-19T16:37:21.613Z,99921.44
2019-05-19T16:39:54.476Z,99922.72
2019-05-19T16:42:27.464Z,99920.23
2019-05-19T16:44:58.850Z,99920.84
2019-05-19T16:47:30.601Z,99926.30
2019-05-19T16:50:03.081Z,99919.28
2019-05-19T16:52:36.504Z,99924.59
2019-05-19T16:55:10.248Z,99924.28
2019-05-19T16:57:42.302Z,99922.59
2019-05-19T17:00:14.228Z,99923.96
2019-05-19T17:02:46.033Z,99924.90
2019-05-19T17:08:22.063Z,99925.87
2019-05-19T17:10:53.629Z,99920.66
2019-05-19T17:13:26.589Z,99922.08
2019-05-19T17:15:58.526Z,99918.06
2019-05-19T17:18:31.502Z,99924.31
2019-05-19T17:21:03.590Z,99921.23
2019-05-19T17:23:34.998Z,99923.09
2019-05-19T17:26:06.389Z,99928.82
2019-05-19T17:28:40.077Z,99924.90
2019-05-19T17:31:11.901Z,99926.73
2019-05-19T17:33:48.774Z,99921.00
2019-05-19T17:36:22.606Z,99912.66
2019-05-19T17:38:54.789Z,99910.43
2019-05-19T17:41:27.853Z,99920.18
2019-05-19T17:43:59.125Z,99921.50
2019-05-19T17:46:31.831Z,99922.48
2019-05-19T17:49:04.091Z,99923.88
2019-05-19T17:51:36.026Z,99933.64
2019-05-19T17:54:07.988Z,99927.96
2019-05-19T17:56:40.416Z,99935.07
2019-05-19T17:59:16.666Z,99942.23
2019-05-19T18:01:46.352Z,99946.70
2019-05-19T18:04:19.071Z,99950.73
2019-05-19T18:06:50.492Z,99932.67
2019-05-19T18:09:23.801Z,99933.59
2019-05-19T18:11:55.716Z,99924.78
2019-05-19T18:14:28.525Z,99922.56
2019-05-19T18:17:00.186Z,99916.81
2019-05-19T18:19:32.443Z,99909.36
2019-05-19T18:22:04.077Z,99905.36
2019-05-19T18:24:36.048Z,99909.78
2019-05-19T18:27:08.254Z,99909.36
2019-05-19T18:29:40.580Z,99908.92
2019-05-19T18:32:25.986Z,99897.96
2019-05-19T18:37:41.920Z,99896.67
2019-05-19T18:40:15.048Z,99903.75
2019-05-19T18:42:51.355Z,99901.98
2019-05-19T18:45:24.420Z,99915.22
2019-05-19T18:47:55.967Z,99917.40
2019-05-19T18:50:32.272Z,99917.41
2019-05-19T18:53:07.378Z,99927.20
2019-05-19T18:55:39.637Z,99930.78
2019-05-19T18:58:10.888Z,99930.31
2019-05-19T19:00:42.777Z,99940.50
2019-05-19T19:03:14.315Z,99947.97
2019-05-19T19:05:45.530Z,99965.58
2019-05-19T19:08:17.503Z,99942.68
2019-05-19T19:10:49.043Z,99957.66
2019-05-19T19:13:23.615Z,99953.23
2019-05-19T19:15:54.944Z,99964.23
2019-05-19T19:18:29.596Z,99958.94
2019-05-19T19:21:00.472Z,99965.97
2019-05-19T19:23:32.122Z,99975.20
2019-05-19T19:26:03.582Z,99979.17
2019-05-19T19:28:35.367Z,99984.84
2019-05-19T19:31:06.715Z,99981.23
2019-05-19T19:33:38.440Z,99975.52
2019-05-19T19:36:09.677Z,99970.64
2019-05-19T19:38:41.317Z,99976.33
2019-05-19T19:41:14.395Z,99962.69
2019-05-19T19:43:46.276Z,99959.15
2019-05-19T19:46:17.399Z,99970.14
2019-05-19T19:48:49.533Z,99969.69
2019-05-19T19:51:21.566Z,99967.41
2019-05-19T19:53:54.640Z,99962.56
2019-05-19T19:56:26.969Z,99958.57
2019-05-19T19:58:58.437Z,99953.70
2019-05-19T20:01:31.037Z,99961.59
2019-05-19T20:04:03.040Z,99964.60
2019-05-19T20:06:34.757Z,99958.44
2019-05-19T20:09:07.877Z,99950.52
2019-05-19T20:11:38.952Z,99947.45
2019-05-19T20:14:10.403Z,99937.31
2019-05-19T20:16:42.717Z,99934.25
2019-05-19T20:19:14.392Z,99932.91
2019-05-19T20:21:45.944Z,99928.98
2019-05-19T20:24:17.348Z,99928.11
2019-05-19T20:26:48.829Z,99917.11
2019-05-19T20:29:21.470Z,99914.50
2019-05-19T20:31:53.388Z,99906.16
2019-05-19T20:34:29.389Z,99912.72
2019-05-19T20:37:00.731Z,99913.63
2019-05-19T20:39:33.918Z,99914.02
2019-05-19T20:42:06.553Z,99917.52
2019-05-19T20:44:39.030Z,99904.28
2019-05-19T20:47:10.914Z,99905.92
2019-05-19T20:49:42.253Z,99908.91
2019-05-19T20:52:13.622Z,99913.70
2019-05-19T20:54:45.012Z,99912.80
2019-05-19T20:57:16.458Z,99916.28
2019-05-19T20:59:47.474Z,99914.99
2019-05-19T21:02:19.498Z,99923.36
2019-05-19T21:04:51.935Z,99918.02
2019-05-19T21:07:24.146Z,99919.73
2019-05-19T21:09:55.657Z,99912.58
2019-05-19T21:12:27.997Z,99912.95
2019-05-19T21:15:01.141Z,99912.89
2019-05-19T21:17:34.395Z,99909.38
2019-05-19T21:20:08.035Z,99908.00
2019-05-19T21:22:39.778Z,99912.63
2019-05-19T21:25:11.835Z,99911.67
2019-05-19T21:27:43.635Z,99908.17
2019-05-19T21:30:15.693Z,99911.05
2019-05-19T21:32:47.842Z,99907.55
2019-05-19T21:35:19.967Z,99900.30
2019-05-19T21:37:51.640Z,99905.52
2019-05-19T21:40:24.002Z,99901.97
2019-05-19T21:42:55.164Z,99910.33
2019-05-19T21:45:26.948Z,99907.11
2019-05-19T21:47:58.661Z,99913.59
2019-05-19T21:50:30.440Z,99913.10
2019-05-19T21:53:01.678Z,99910.38
2019-05-19T21:55:33.572Z,99919.63
2019-05-19T21:58:05.034Z,99923.61
2019-05-19T22:00:36.757Z,99918.71
2019-05-19T22:03:08.282Z,99920.06
2019-05-19T22:05:52.507Z,99922.25
2019-05-19T22:08:14.183Z,99911.92
2019-05-19T22:10:45.716Z,99917.51
2019-05-19T22:13:17.089Z,99913.91
2019-05-19T22:15:49.382Z,99920.92
2019-05-19T22:18:21.205Z,99926.11
2019-05-19T22:20:53.160Z,99935.20
2019-05-19T22:23:24.892Z,99932.52
2019-05-19T22:25:56.413Z,99940.78
2019-05-19T22:28:27.757Z,99940.73
2019-05-19T22:30:59.446Z,99937.14
2019-05-19T22:33:31.088Z,99936.30
2019-05-19T22:36:01.991Z,99930.90
2019-05-19T22:38:33.683Z,99928.94
2019-05-19T22:41:05.099Z,99934.23
2019-05-19T22:43:36.312Z,99938.09
2019-05-19T22:46:08.411Z,99924.50
2019-05-19T22:48:40.574Z,99923.14
2019-05-19T22:51:12.705Z,99931.81
2019-05-19T22:53:44.497Z,99926.89
2019-05-19T22:56:16.370Z,99926.83
2019-05-19T22:58:47.549Z,99919.80
2019-05-19T23:01:19.709Z,99917.55
2019-05-19T23:03:51.870Z,99916.16
2019-05-19T23:06:23.163Z,99919.78
2019-05-19T23:08:54.678Z,99917.09
2019-05-19T23:11:26.584Z,99921.78
2019-05-19T23:13:57.982Z,99922.10
2019-05-19T23:16:29.583Z,99924.55
2019-05-19T23:19:01.023Z,99918.84
2019-05-19T23:21:34.574Z,99907.47
2019-05-19T23:24:05.757Z,99902.64
2019-05-19T23:26:37.077Z,99903.03
2019-05-19T23:29:08.681Z,99913.97
2019-05-19T23:31:42.663Z,99910.77
2019-05-19T23:34:13.549Z,99919.77
2019-05-19T23:36:44.946Z,99915.69
2019-05-19T23:39:16.666Z,99917.45
2019-05-19T23:41:48.127Z,99923.13
2019-05-19T23:44:19.538Z,99913.02
2019-05-19T23:46:51.318Z,99915.79
2019-05-19T23:49:22.779Z,99917.40
2019-05-19T23:51:54.203Z,99918.70
2019-05-19T23:54:25.678Z,99917.34
2019-05-19T23:56:56.793Z,99918.64
2019-05-19T23:59:28.302Z,99923.07
